Luminous Kobe-2 — JJ3868 — position and weather

sailwx.info

Track history (hours):
 
Tides and Currents Weather Stations Pressure Air Temp Water Temp Dewpoint Dewpoint Depression Visibility Wind Speed Wind Dir Waves Ship Positions

Luminous Kobe-2

Last reported at 2017-Dec-11 16:58 UTC. Time now 2017-Dec-12 00:43 UTC.
Position N 34°41' E 135°11'.

Length 105 m; draft 4.4 m.

Type: Passenger vessel. MMSI: 431000469.

Date/timePositionNaut miles runAvg speedWind from/ knotsBaromVisibWave heightAir tempDewpointWater temp
2017-Dec-11 16:58N 34°41' E 135°11'0 0.0
2017-Dec-11 16:28N 34°41' E 135°11'0 0.0
2017-Dec-11 15:58N 34°41' E 135°11'0 0.0
2017-Dec-11 15:28N 34°41' E 135°11'0 0.0
2017-Dec-11 14:58N 34°41' E 135°11'0 0.0
2017-Dec-11 14:28N 34°41' E 135°11'0 0.0
2017-Dec-11 13:58N 34°41' E 135°11'0 0.0
2017-Dec-11 13:28N 34°41' E 135°11'0 0.0
2017-Dec-11 12:58N 34°41' E 135°11'0 0.0
2017-Dec-11 12:28N 34°41' E 135°11'1 1.5
2017-Dec-11 12:00N 34°40' E 135°12'612.6
2017-Dec-11 11:30N 34°36' E 135°06'510.9
2017-Dec-11 11:00N 34°37' E 135°00'612.6
2017-Dec-11 10:31N 34°37' E 135°08'5 9.4
2017-Dec-11 10:01N 34°41' E 135°11'0 0.0
2017-Dec-11 09:29N 34°41' E 135°11'1 1.6
2017-Dec-11 09:01N 34°40' E 135°12'4 7.6
2017-Dec-11 08:30N 34°38' E 135°08'4 8.5
2017-Dec-11 08:00N 34°41' E 135°11'0 0.0
2017-Dec-11 07:30N 34°41' E 135°11'0 0.0
2017-Dec-11 07:00N 34°41' E 135°11'0 0.0
2017-Dec-11 06:30N 34°41' E 135°11'0 0.0
2017-Dec-11 06:00N 34°41' E 135°11'0 0.0
2017-Dec-11 05:30N 34°41' E 135°11'0 0.0
2017-Dec-11 05:00N 34°41' E 135°11'3 5.2
2017-Dec-11 04:30N 34°38' E 135°11'2 3.6
2017-Dec-11 04:00N 34°37' E 135°10'3 6.5
2017-Dec-11 03:30N 34°37' E 135°14'4 8.1
2017-Dec-11 03:01N 34°41' E 135°11'0 0.0
2017-Dec-11 02:28N 34°41' E 135°11'0 0.0
2017-Dec-11 01:58N 34°41' E 135°11'0 0.0
2017-Dec-11 01:28N 34°41' E 135°11'0 0.0
2017-Dec-11 00:58N 34°41' E 135°11'0 0.0
2017-Dec-11 00:28N 34°41' E 135°11'0 0.0
2017-Dec-10 23:58N 34°41' E 135°11'0 0.0
2017-Dec-10 23:28N 34°41' E 135°11'0 0.0
2017-Dec-10 22:58N 34°41' E 135°11'0 0.0
2017-Dec-10 22:28N 34°41' E 135°11'0 0.0
2017-Dec-10 21:58N 34°41' E 135°11'0 0.0
2017-Dec-10 21:28N 34°41' E 135°11'0 0.0
2017-Dec-10 20:58N 34°41' E 135°11'0 0.0
2017-Dec-10 20:28N 34°41' E 135°11'0 0.0
2017-Dec-10 19:58N 34°41' E 135°11'0 0.0
2017-Dec-10 19:28N 34°41' E 135°11'0 0.0
2017-Dec-10 18:58N 34°41' E 135°11'0 0.0
2017-Dec-10 18:28N 34°41' E 135°11'0 0.0
2017-Dec-10 17:55N 34°41' E 135°11'0 0.0
2017-Dec-10 17:28N 34°41' E 135°11'0 0.0
2017-Dec-10 16:58N 34°41' E 135°11'0 0.0
2017-Dec-10 16:28N 34°41' E 135°11'0 0.0
2017-Dec-10 15:58N 34°41' E 135°11'0 0.0
2017-Dec-10 15:28N 34°41' E 135°11'0 0.0
2017-Dec-10 14:58N 34°41' E 135°11'0 0.0
2017-Dec-10 14:28N 34°41' E 135°11'0 0.0
2017-Dec-10 13:58N 34°41' E 135°11'0 0.0
2017-Dec-10 13:28N 34°41' E 135°11'0 0.0
2017-Dec-10 12:58N 34°41' E 135°11'0 0.0
2017-Dec-10 12:28N 34°41' E 135°11'1 2.0
2017-Dec-10 12:01N 34°40' E 135°12'714.4
2017-Dec-10 11:30N 34°35' E 135°05'4 8.7
2017-Dec-10 11:00N 34°37' E 135°01'611.9
2017-Dec-10 10:31N 34°37' E 135°08'4 8.7
2017-Dec-10 10:00N 34°41' E 135°11'0 0.0
2017-Dec-10 09:29N 34°41' E 135°11'0 0.0
2017-Dec-10 08:59N 34°41' E 135°11'2 4.4
2017-Dec-10 08:31N 34°39' E 135°11'4 7.6
2017-Dec-10 08:00N 34°37' E 135°07'510.4
2017-Dec-10 07:30N 34°37' E 135°13'4 7.6
2017-Dec-10 07:01N 34°41' E 135°11'0 0.0
2017-Dec-10 06:29N 34°41' E 135°11'0 0.0
2017-Dec-10 05:59N 34°41' E 135°11'0 0.0
2017-Dec-10 05:29N 34°41' E 135°11'0 0.0
2017-Dec-10 04:59N 34°41' E 135°11'2 4.6
2017-Dec-10 04:30N 34°39' E 135°11'4 8.3
2017-Dec-10 04:00N 34°37' E 135°06'611.4
2017-Dec-10 03:30N 34°37' E 135°13'4 7.9
2017-Dec-10 03:00N 34°41' E 135°11'0 0.0
2017-Dec-10 02:30N 34°41' E 135°11'0 0.0
2017-Dec-10 02:00N 34°41' E 135°11'0 0.0
2017-Dec-10 01:30N 34°41' E 135°11'0 0.0
2017-Dec-10 01:00N 34°41' E 135°11'0 0.0
2017-Dec-10 00:30N 34°41' E 135°11'0 0.0
2017-Dec-10 00:00N 34°41' E 135°11'0 0.0
2017-Dec-09 23:30N 34°41' E 135°11'0 0.0
2017-Dec-09 23:00N 34°41' E 135°11'0 0.0
2017-Dec-09 22:30N 34°41' E 135°11'0 0.0
2017-Dec-09 22:00N 34°41' E 135°11'0 0.0
2017-Dec-09 21:30N 34°41' E 135°11'0 0.0
2017-Dec-09 21:00N 34°41' E 135°11'0 0.0
2017-Dec-09 20:30N 34°41' E 135°11'0 0.0
2017-Dec-09 20:00N 34°41' E 135°11'0 0.0
2017-Dec-09 19:30N 34°41' E 135°11'0 0.0
2017-Dec-09 19:00N 34°41' E 135°11'0 0.0
2017-Dec-09 18:30N 34°41' E 135°11'0 0.0
2017-Dec-09 18:00N 34°41' E 135°11'0 0.0
2017-Dec-09 17:30N 34°41' E 135°11'0 0.0
2017-Dec-09 17:00N 34°41' E 135°11'0 0.0
2017-Dec-09 16:30N 34°41' E 135°11'0 0.0
2017-Dec-09 16:00N 34°41' E 135°11'0 0.0
2017-Dec-09 15:30N 34°41' E 135°11'0 0.0
2017-Dec-09 15:00N 34°41' E 135°11'0 0.0
2017-Dec-09 14:30N 34°41' E 135°11'0 0.0
2017-Dec-09 14:00N 34°41' E 135°11'0 0.0
2017-Dec-09 13:30N 34°41' E 135°11'0 0.0
2017-Dec-09 13:00N 34°41' E 135°11'0 0.0
2017-Dec-09 12:30N 34°41' E 135°11'1 1.9
2017-Dec-09 12:00N 34°40' E 135°12'713.7
2017-Dec-09 11:31N 34°35' E 135°06'611.3
2017-Dec-09 11:00N 34°37' E 135°00'612.1
2017-Dec-09 10:31N 34°37' E 135°08'5 9.3
2017-Dec-09 10:00N 34°41' E 135°11'0 0.0
2017-Dec-09 09:30N 34°41' E 135°11'0 0.0
2017-Dec-09 09:00N 34°41' E 135°11'2 4.4
2017-Dec-09 08:30N 34°39' E 135°11'3 6.5
2017-Dec-09 08:01N 34°37' E 135°08'3 6.2
2017-Dec-09 07:30N 34°37' E 135°12'3 6.7
2017-Dec-09 07:00N 34°41' E 135°11'0 0.0
2017-Dec-09 06:28N 34°41' E 135°11'0 0.0
2017-Dec-09 05:58N 34°41' E 135°11'0 0.0
2017-Dec-09 05:28N 34°41' E 135°11'0 0.0
2017-Dec-09 04:58N 34°41' E 135°11'3 5.6
2017-Dec-09 04:30N 34°38' E 135°11'3 5.8
2017-Dec-09 04:00N 34°37' E 135°08'4 8.5
2017-Dec-09 03:31N 34°37' E 135°13'4 7.3
2017-Dec-09 03:00N 34°41' E 135°11'0 0.0
2017-Dec-09 02:28N 34°41' E 135°11'0 0.0
2017-Dec-09 01:58N 34°41' E 135°11'0 0.0
2017-Dec-09 01:28N 34°41' E 135°11'0 0.0
2017-Dec-09 00:58N 34°41' E 135°11'0 0.0
2017-Dec-09 00:28N 34°41' E 135°11'0 0.0
2017-Dec-08 23:58N 34°41' E 135°11'0 0.0
2017-Dec-08 23:28N 34°41' E 135°11'0 0.0
2017-Dec-08 22:58N 34°41' E 135°11'0 0.0
2017-Dec-08 22:28N 34°41' E 135°11'0 0.0
2017-Dec-08 21:58N 34°41' E 135°11'0 0.0
2017-Dec-08 21:28N 34°41' E 135°11'0 0.0
2017-Dec-08 20:58N 34°41' E 135°11'0 0.0
2017-Dec-08 20:28N 34°41' E 135°11'0 0.0
2017-Dec-08 19:58N 34°41' E 135°11'0 0.0
2017-Dec-08 19:28N 34°41' E 135°11'0 0.0
2017-Dec-08 18:58N 34°41' E 135°11'0 0.0
2017-Dec-08 18:28N 34°41' E 135°11'0 0.0
2017-Dec-08 17:58N 34°41' E 135°11'0 0.0
2017-Dec-08 17:28N 34°41' E 135°11'0 0.0
2017-Dec-08 16:52N 34°41' E 135°11'0 0.0
2017-Dec-08 16:28N 34°41' E 135°11'0 0.0
2017-Dec-08 15:58N 34°41' E 135°11'0 0.0
2017-Dec-08 15:28N 34°41' E 135°11'0 0.0
2017-Dec-08 14:58N 34°41' E 135°11'0 0.0
2017-Dec-08 14:28N 34°41' E 135°11'0 0.0
2017-Dec-08 13:55N 34°41' E 135°11'0 0.0
2017-Dec-08 13:28N 34°41' E 135°11'0 0.0
2017-Dec-08 12:58N 34°41' E 135°11'0 0.0
2017-Dec-08 12:28N 34°41' E 135°11'1 1.8
2017-Dec-08 12:00N 34°40' E 135°12'713.6
2017-Dec-08 11:31N 34°35' E 135°06'510.4
2017-Dec-08 11:00N 34°37' E 135°00'612.1
2017-Dec-08 10:31N 34°37' E 135°08'5 9.5
2017-Dec-08 10:00N 34°41' E 135°11'0 0.0
2017-Dec-08 09:29N 34°41' E 135°11'1 1.7
2017-Dec-08 09:00N 34°40' E 135°12'3 6.2
2017-Dec-08 08:30N 34°38' E 135°09'4 7.2
2017-Dec-08 08:01N 34°41' E 135°11'0 0.0
2017-Dec-08 07:29N 34°41' E 135°11'0 0.0
2017-Dec-08 06:59N 34°41' E 135°11'0 0.0
2017-Dec-08 06:29N 34°41' E 135°11'0 0.0
2017-Dec-08 05:59N 34°41' E 135°11'0 0.0
2017-Dec-08 05:29N 34°41' E 135°11'0 0.0
2017-Dec-08 04:59N 34°41' E 135°11'0 0.0
2017-Dec-08 04:29N 34°41' E 135°11'0 0.0
2017-Dec-08 03:59N 34°41' E 135°11'0 0.0
2017-Dec-08 03:29N 34°41' E 135°11'0 0.0
2017-Dec-08 03:01N 34°41' E 135°11'0 0.0
2017-Dec-08 02:28N 34°41' E 135°11'0 0.0
2017-Dec-08 01:58N 34°41' E 135°11'0 0.0
2017-Dec-08 01:28N 34°41' E 135°11'0 0.0
2017-Dec-08 00:58N 34°41' E 135°11'0 0.0
2017-Dec-08 00:28N 34°41' E 135°11'0 0.0
2017-Dec-07 23:58N 34°41' E 135°11'0 0.0
2017-Dec-07 23:28N 34°41' E 135°11'0 0.0
2017-Dec-07 22:58N 34°41' E 135°11'0 0.0
2017-Dec-07 22:28N 34°41' E 135°11'0 0.0
2017-Dec-07 21:58N 34°41' E 135°11'0 0.0
2017-Dec-07 21:28N 34°41' E 135°11'0 0.0
2017-Dec-07 20:58N 34°41' E 135°11'0 0.0
2017-Dec-07 20:28N 34°41' E 135°11'0 0.0
2017-Dec-07 19:58N 34°41' E 135°11'0 0.0
2017-Dec-07 19:28N 34°41' E 135°11'0 0.0
2017-Dec-07 18:58N 34°41' E 135°11'0 0.0
2017-Dec-07 18:28N 34°41' E 135°11'0 0.0
2017-Dec-07 17:58N 34°41' E 135°11'0 0.0
2017-Dec-07 17:28N 34°41' E 135°11'0 0.0
2017-Dec-07 16:58N 34°41' E 135°11'0 0.0
2017-Dec-07 16:28N 34°41' E 135°11'0 0.0
2017-Dec-07 15:58N 34°41' E 135°11'0 0.0
2017-Dec-07 15:28N 34°41' E 135°11'0 0.0
2017-Dec-07 14:58N 34°41' E 135°11'0 0.0
2017-Dec-07 14:28N 34°41' E 135°11'0 0.0
2017-Dec-07 13:58N 34°41' E 135°11'0 0.0
2017-Dec-07 13:28N 34°41' E 135°11'0 0.0
2017-Dec-07 12:58N 34°41' E 135°11'0 0.0
2017-Dec-07 12:28N 34°41' E 135°11'1 2.1
2017-Dec-07 12:00N 34°40' E 135°12'713.1
2017-Dec-07 11:30N 34°35' E 135°06'611.6
2017-Dec-07 11:00N 34°37' E 134°59'713.3
2017-Dec-07 10:30N 34°37' E 135°07'5 9.9
2017-Dec-07 10:00N 34°41' E 135°11'0 0.0
2017-Dec-07 09:30N 34°41' E 135°11'1 1.5
2017-Dec-07 09:00N 34°40' E 135°12'4 7.7
2017-Dec-07 08:30N 34°38' E 135°08'4 8.5
2017-Dec-07 08:01N 34°41' E 135°11'0 0.0
2017-Dec-07 07:30N 34°41' E 135°11'0 0.0
2017-Dec-07 07:00N 34°41' E 135°11'0 0.0
2017-Dec-07 06:30N 34°41' E 135°11'0 0.0
2017-Dec-07 06:00N 34°41' E 135°11'0 0.0
2017-Dec-07 05:30N 34°41' E 135°11'0 0.0
2017-Dec-07 05:00N 34°41' E 135°11'3 5.3
2017-Dec-07 04:30N 34°38' E 135°11'2 3.3
2017-Dec-07 04:00N 34°37' E 135°10'3 6.0
2017-Dec-07 03:30N 34°37' E 135°13'4 7.5
2017-Dec-07 03:00N 34°41' E 135°11'0 0.0
2017-Dec-07 02:28N 34°41' E 135°11'0 0.0
2017-Dec-07 01:58N 34°41' E 135°11'0 0.0
2017-Dec-07 01:28N 34°41' E 135°11'0 0.0
2017-Dec-07 00:58N 34°41' E 135°11'0 0.0
2017-Dec-07 00:28N 34°41' E 135°11'0 0.0
2017-Dec-06 23:58N 34°41' E 135°11'0 0.0
2017-Dec-06 23:28N 34°41' E 135°11'0 0.0
2017-Dec-06 22:58N 34°41' E 135°11'0 0.0
2017-Dec-06 22:28N 34°41' E 135°11'0 0.0
2017-Dec-06 21:58N 34°41' E 135°11'0 0.0
2017-Dec-06 21:28N 34°41' E 135°11'0 0.0
2017-Dec-06 20:58N 34°41' E 135°11'  
2017-Dec-04 10:31N 34°37' E 135°08'5 9.9
2017-Dec-04 10:01N 34°41' E 135°11'0 0.0
2017-Dec-04 09:29N 34°41' E 135°11'1 1.5
2017-Dec-04 09:00N 34°40' E 135°12'4 7.6
2017-Dec-04 08:30N 34°38' E 135°08'4 8.3
2017-Dec-04 08:00N 34°41' E 135°11'0 0.0
2017-Dec-04 07:28N 34°41' E 135°11'0 0.0
2017-Dec-04 06:58N 34°41' E 135°11'0 0.0
2017-Dec-04 06:28N 34°41' E 135°11'0 0.0
2017-Dec-04 05:58N 34°41' E 135°11'0 0.0
2017-Dec-04 05:28N 34°41' E 135°11'0 0.0
2017-Dec-04 04:58N 34°41' E 135°11'2 5.3
2017-Dec-04 04:31N 34°38' E 135°11'3 6.4
2017-Dec-04 04:00N 34°37' E 135°08'5 9.9
2017-Dec-04 03:30N 34°37' E 135°13'4 7.5
2017-Dec-04 03:00N 34°41' E 135°11'0 0.0
2017-Dec-04 02:28N 34°41' E 135°11'0 0.0
2017-Dec-04 01:58N 34°41' E 135°11'0 0.0
2017-Dec-04 01:28N 34°41' E 135°11'0 0.0
2017-Dec-04 00:58N 34°41' E 135°11'0 0.0
2017-Dec-04 00:28N 34°41' E 135°11'0 0.0
2017-Dec-03 23:58N 34°41' E 135°11'0 0.0
2017-Dec-03 23:28N 34°41' E 135°11'0 0.0
2017-Dec-03 22:58N 34°41' E 135°11'0 0.0
2017-Dec-03 22:28N 34°41' E 135°11'0 0.0
2017-Dec-03 21:55N 34°41' E 135°11'0 0.0
2017-Dec-03 21:28N 34°41' E 135°11'0 0.0
2017-Dec-03 20:58N 34°41' E 135°11'0 0.0
2017-Dec-03 20:28N 34°41' E 135°11'0 0.0
2017-Dec-03 19:58N 34°41' E 135°11'0 0.0
2017-Dec-03 19:28N 34°41' E 135°11'0 0.0
2017-Dec-03 18:58N 34°41' E 135°11'0 0.0
2017-Dec-03 18:28N 34°41' E 135°11'0 0.0
2017-Dec-03 17:58N 34°41' E 135°11'0 0.0
2017-Dec-03 17:28N 34°41' E 135°11'0 0.0
2017-Dec-03 16:58N 34°41' E 135°11'0 0.0
2017-Dec-03 16:28N 34°41' E 135°11'0 0.0
2017-Dec-03 15:58N 34°41' E 135°11'0 0.0
2017-Dec-03 15:28N 34°41' E 135°11'0 0.0
2017-Dec-03 14:58N 34°41' E 135°11'0 0.0
2017-Dec-03 14:28N 34°41' E 135°11'0 0.0
2017-Dec-03 13:58N 34°41' E 135°11'0 0.0
2017-Dec-03 13:28N 34°41' E 135°11'0 0.0
2017-Dec-03 12:58N 34°41' E 135°11'0 0.0
2017-Dec-03 12:28N 34°41' E 135°11'1 2.6
2017-Dec-03 12:00N 34°40' E 135°11'713.2
2017-Dec-03 11:30N 34°35' E 135°06'612.6
2017-Dec-03 11:01N 34°37' E 134°59'816.9
2017-Dec-03 10:31N 34°38' E 135°09'4 7.6
2017-Dec-03 10:00N 34°41' E 135°11'0 0.0
2017-Dec-03 09:29N 34°41' E 135°11'0 0.0
2017-Dec-03 08:59N 34°41' E 135°11'2 5.3
2017-Dec-03 08:30N 34°38' E 135°11'3 7.0
2017-Dec-03 08:00N 34°37' E 135°07'4 8.4
2017-Dec-03 07:31N 34°38' E 135°12'3 6.4
2017-Dec-03 07:00N 34°41' E 135°11'0 0.0
2017-Dec-03 06:29N 34°41' E 135°11'0 0.0
2017-Dec-03 05:59N 34°41' E 135°11'0 0.0
2017-Dec-03 05:29N 34°41' E 135°11'0 0.0
2017-Dec-03 04:59N 34°41' E 135°11'2 4.9
2017-Dec-03 04:31N 34°38' E 135°11'4 8.1
2017-Dec-03 04:00N 34°37' E 135°07'510.8
2017-Dec-03 03:30N 34°37' E 135°13'4 7.9
2017-Dec-03 03:00N 34°41' E 135°11'0 0.0
2017-Dec-03 02:30N 34°41' E 135°11'0 0.0
2017-Dec-03 02:00N 34°41' E 135°11'0 0.0
2017-Dec-03 01:30N 34°41' E 135°11'0 0.0
2017-Dec-03 01:00N 34°41' E 135°11'0 0.0
2017-Dec-03 00:30N 34°41' E 135°11'0 0.0
2017-Dec-03 00:00N 34°41' E 135°11'0 0.0
2017-Dec-02 23:30N 34°41' E 135°11'0 0.0
2017-Dec-02 23:00N 34°41' E 135°11'0 0.0
2017-Dec-02 22:30N 34°41' E 135°11'0 0.0
2017-Dec-02 22:00N 34°41' E 135°11'0 0.0
2017-Dec-02 21:30N 34°41' E 135°11'0 0.0
2017-Dec-02 21:00N 34°41' E 135°11'0 0.0
2017-Dec-02 20:30N 34°41' E 135°11'0 0.0
2017-Dec-02 20:00N 34°41' E 135°11'0 0.0
2017-Dec-02 19:30N 34°41' E 135°11'0 0.0
2017-Dec-02 19:00N 34°41' E 135°11'0 0.0
2017-Dec-02 18:30N 34°41' E 135°11'0 0.0
2017-Dec-02 18:00N 34°41' E 135°11'0 0.0
2017-Dec-02 17:30N 34°41' E 135°11'0 0.0
2017-Dec-02 17:00N 34°41' E 135°11'0 0.0
2017-Dec-02 16:30N 34°41' E 135°11'0 0.0
2017-Dec-02 16:00N 34°41' E 135°11'0 0.0
2017-Dec-02 15:30N 34°41' E 135°11'0 0.0
2017-Dec-02 15:00N 34°41' E 135°11'0 0.0
2017-Dec-02 14:30N 34°41' E 135°11'0 0.0
2017-Dec-02 14:00N 34°41' E 135°11'0 0.0
2017-Dec-02 13:30N 34°41' E 135°11'0 0.0
2017-Dec-02 13:00N 34°41' E 135°11'0 0.0
2017-Dec-02 12:30N 34°41' E 135°11'1 1.3
2017-Dec-02 12:00N 34°40' E 135°11'713.1
2017-Dec-02 11:30N 34°36' E 135°06'612.4
2017-Dec-02 11:01N 34°38' E 134°59'816.1
2017-Dec-02 10:31N 34°38' E 135°09'4 7.7
2017-Dec-02 10:00N 34°41' E 135°11'0 0.0
2017-Dec-02 09:26N 34°41' E 135°11'0 0.0
2017-Dec-02 08:59N 34°41' E 135°11'2 5.1
2017-Dec-02 08:30N 34°38' E 135°11'4 7.6
2017-Dec-02 08:00N 34°37' E 135°07'611.6
2017-Dec-02 07:30N 34°37' E 135°14'4 7.6
2017-Dec-02 06:59N 34°41' E 135°11'0 0.0
2017-Dec-02 06:26N 34°41' E 135°11'0 0.0
2017-Dec-02 05:59N 34°41' E 135°11'0 0.0
2017-Dec-02 05:29N 34°41' E 135°11'0 0.0
2017-Dec-02 04:59N 34°41' E 135°11'2 4.9
2017-Dec-02 04:31N 34°38' E 135°11'4 7.2
2017-Dec-02 04:00N 34°37' E 135°07'5 9.9
2017-Dec-02 03:30N 34°37' E 135°13'4 7.5
2017-Dec-02 03:00N 34°41' E 135°11'0 0.0
2017-Dec-02 02:28N 34°41' E 135°11'0 0.0
2017-Dec-02 01:58N 34°41' E 135°11'0 0.0
2017-Dec-02 01:28N 34°41' E 135°11'0 0.0
2017-Dec-02 00:58N 34°41' E 135°11'0 0.0
2017-Dec-02 00:28N 34°41' E 135°11'0 0.0
2017-Dec-01 23:58N 34°41' E 135°11'0 0.0
2017-Dec-01 23:28N 34°41' E 135°11'0 0.0
2017-Dec-01 22:58N 34°41' E 135°11'0 0.0
2017-Dec-01 22:28N 34°41' E 135°11'0 0.0
2017-Dec-01 21:58N 34°41' E 135°11'0 0.0
2017-Dec-01 21:28N 34°41' E 135°11'0 0.0
2017-Dec-01 20:58N 34°41' E 135°11'0 0.0
2017-Dec-01 20:28N 34°41' E 135°11'0 0.0
2017-Dec-01 19:58N 34°41' E 135°11'0 0.0
2017-Dec-01 19:28N 34°41' E 135°11'0 0.0
2017-Dec-01 18:58N 34°41' E 135°11'0 0.0
2017-Dec-01 18:28N 34°41' E 135°11'0 0.0
2017-Dec-01 17:55N 34°41' E 135°11'0 0.0
2017-Dec-01 17:28N 34°41' E 135°11'  
Track history (hours):
 
Tides and Currents Weather Stations Pressure Air Temp Water Temp Dewpoint Dewpoint Depression Visibility Wind Speed Wind Dir Waves Ship Positions

Luminous Kobe-2

Last reported at 2017-Dec-11 16:58 UTC. Time now 2017-Dec-12 00:43 UTC.
Position N 34°41' E 135°11'.

Length 105 m; draft 4.4 m.

Type: Passenger vessel. MMSI: 431000469.

Date/timePositionNaut miles runAvg speedWind from/ knotsBaromVisibWave heightAir tempDewpointWater temp
2017-Dec-11 16:58N 34°41' E 135°11'0 0.0
2017-Dec-11 16:28N 34°41' E 135°11'0 0.0
2017-Dec-11 15:58N 34°41' E 135°11'0 0.0
2017-Dec-11 15:28N 34°41' E 135°11'0 0.0
2017-Dec-11 14:58N 34°41' E 135°11'0 0.0
2017-Dec-11 14:28N 34°41' E 135°11'0 0.0
2017-Dec-11 13:58N 34°41' E 135°11'0 0.0
2017-Dec-11 13:28N 34°41' E 135°11'0 0.0
2017-Dec-11 12:58N 34°41' E 135°11'0 0.0
2017-Dec-11 12:28N 34°41' E 135°11'1 1.5
2017-Dec-11 12:00N 34°40' E 135°12'612.6
2017-Dec-11 11:30N 34°36' E 135°06'510.9
2017-Dec-11 11:00N 34°37' E 135°00'612.6
2017-Dec-11 10:31N 34°37' E 135°08'5 9.4
2017-Dec-11 10:01N 34°41' E 135°11'0 0.0
2017-Dec-11 09:29N 34°41' E 135°11'1 1.6
2017-Dec-11 09:01N 34°40' E 135°12'4 7.6
2017-Dec-11 08:30N 34°38' E 135°08'4 8.5
2017-Dec-11 08:00N 34°41' E 135°11'0 0.0
2017-Dec-11 07:30N 34°41' E 135°11'0 0.0
2017-Dec-11 07:00N 34°41' E 135°11'0 0.0
2017-Dec-11 06:30N 34°41' E 135°11'0 0.0
2017-Dec-11 06:00N 34°41' E 135°11'0 0.0
2017-Dec-11 05:30N 34°41' E 135°11'0 0.0
2017-Dec-11 05:00N 34°41' E 135°11'3 5.2
2017-Dec-11 04:30N 34°38' E 135°11'2 3.6
2017-Dec-11 04:00N 34°37' E 135°10'3 6.5
2017-Dec-11 03:30N 34°37' E 135°14'4 8.1
2017-Dec-11 03:01N 34°41' E 135°11'0 0.0
2017-Dec-11 02:28N 34°41' E 135°11'0 0.0
2017-Dec-11 01:58N 34°41' E 135°11'0 0.0
2017-Dec-11 01:28N 34°41' E 135°11'0 0.0
2017-Dec-11 00:58N 34°41' E 135°11'0 0.0
2017-Dec-11 00:28N 34°41' E 135°11'0 0.0
2017-Dec-10 23:58N 34°41' E 135°11'0 0.0
2017-Dec-10 23:28N 34°41' E 135°11'0 0.0
2017-Dec-10 22:58N 34°41' E 135°11'0 0.0
2017-Dec-10 22:28N 34°41' E 135°11'0 0.0
2017-Dec-10 21:58N 34°41' E 135°11'0 0.0
2017-Dec-10 21:28N 34°41' E 135°11'0 0.0
2017-Dec-10 20:58N 34°41' E 135°11'0 0.0
2017-Dec-10 20:28N 34°41' E 135°11'0 0.0
2017-Dec-10 19:58N 34°41' E 135°11'0 0.0
2017-Dec-10 19:28N 34°41' E 135°11'0 0.0
2017-Dec-10 18:58N 34°41' E 135°11'0 0.0
2017-Dec-10 18:28N 34°41' E 135°11'0 0.0
2017-Dec-10 17:55N 34°41' E 135°11'0 0.0
2017-Dec-10 17:28N 34°41' E 135°11'0 0.0
2017-Dec-10 16:58N 34°41' E 135°11'0 0.0
2017-Dec-10 16:28N 34°41' E 135°11'0 0.0
2017-Dec-10 15:58N 34°41' E 135°11'0 0.0
2017-Dec-10 15:28N 34°41' E 135°11'0 0.0
2017-Dec-10 14:58N 34°41' E 135°11'0 0.0
2017-Dec-10 14:28N 34°41' E 135°11'0 0.0
2017-Dec-10 13:58N 34°41' E 135°11'0 0.0
2017-Dec-10 13:28N 34°41' E 135°11'0 0.0
2017-Dec-10 12:58N 34°41' E 135°11'0 0.0
2017-Dec-10 12:28N 34°41' E 135°11'1 2.0
2017-Dec-10 12:01N 34°40' E 135°12'714.4
2017-Dec-10 11:30N 34°35' E 135°05'4 8.7
2017-Dec-10 11:00N 34°37' E 135°01'611.9
2017-Dec-10 10:31N 34°37' E 135°08'4 8.7
2017-Dec-10 10:00N 34°41' E 135°11'0 0.0
2017-Dec-10 09:29N 34°41' E 135°11'0 0.0
2017-Dec-10 08:59N 34°41' E 135°11'2 4.4
2017-Dec-10 08:31N 34°39' E 135°11'4 7.6
2017-Dec-10 08:00N 34°37' E 135°07'510.4
2017-Dec-10 07:30N 34°37' E 135°13'4 7.6
2017-Dec-10 07:01N 34°41' E 135°11'0 0.0
2017-Dec-10 06:29N 34°41' E 135°11'0 0.0
2017-Dec-10 05:59N 34°41' E 135°11'0 0.0
2017-Dec-10 05:29N 34°41' E 135°11'0 0.0
2017-Dec-10 04:59N 34°41' E 135°11'2 4.6
2017-Dec-10 04:30N 34°39' E 135°11'4 8.3
2017-Dec-10 04:00N 34°37' E 135°06'611.4
2017-Dec-10 03:30N 34°37' E 135°13'4 7.9
2017-Dec-10 03:00N 34°41' E 135°11'0 0.0
2017-Dec-10 02:30N 34°41' E 135°11'0 0.0
2017-Dec-10 02:00N 34°41' E 135°11'0 0.0
2017-Dec-10 01:30N 34°41' E 135°11'0 0.0
2017-Dec-10 01:00N 34°41' E 135°11'0 0.0
2017-Dec-10 00:30N 34°41' E 135°11'0 0.0
2017-Dec-10 00:00N 34°41' E 135°11'0 0.0
2017-Dec-09 23:30N 34°41' E 135°11'0 0.0
2017-Dec-09 23:00N 34°41' E 135°11'0 0.0
2017-Dec-09 22:30N 34°41' E 135°11'0 0.0
2017-Dec-09 22:00N 34°41' E 135°11'0 0.0
2017-Dec-09 21:30N 34°41' E 135°11'0 0.0
2017-Dec-09 21:00N 34°41' E 135°11'0 0.0
2017-Dec-09 20:30N 34°41' E 135°11'0 0.0
2017-Dec-09 20:00N 34°41' E 135°11'0 0.0
2017-Dec-09 19:30N 34°41' E 135°11'0 0.0
2017-Dec-09 19:00N 34°41' E 135°11'0 0.0
2017-Dec-09 18:30N 34°41' E 135°11'0 0.0
2017-Dec-09 18:00N 34°41' E 135°11'0 0.0
2017-Dec-09 17:30N 34°41' E 135°11'0 0.0
2017-Dec-09 17:00N 34°41' E 135°11'0 0.0
2017-Dec-09 16:30N 34°41' E 135°11'0 0.0
2017-Dec-09 16:00N 34°41' E 135°11'0 0.0
2017-Dec-09 15:30N 34°41' E 135°11'0 0.0
2017-Dec-09 15:00N 34°41' E 135°11'0 0.0
2017-Dec-09 14:30N 34°41' E 135°11'0 0.0
2017-Dec-09 14:00N 34°41' E 135°11'0 0.0
2017-Dec-09 13:30N 34°41' E 135°11'0 0.0
2017-Dec-09 13:00N 34°41' E 135°11'0 0.0
2017-Dec-09 12:30N 34°41' E 135°11'1 1.9
2017-Dec-09 12:00N 34°40' E 135°12'713.7
2017-Dec-09 11:31N 34°35' E 135°06'611.3
2017-Dec-09 11:00N 34°37' E 135°00'612.1
2017-Dec-09 10:31N 34°37' E 135°08'5 9.3
2017-Dec-09 10:00N 34°41' E 135°11'0 0.0
2017-Dec-09 09:30N 34°41' E 135°11'0 0.0
2017-Dec-09 09:00N 34°41' E 135°11'2 4.4
2017-Dec-09 08:30N 34°39' E 135°11'3 6.5
2017-Dec-09 08:01N 34°37' E 135°08'3 6.2
2017-Dec-09 07:30N 34°37' E 135°12'3 6.7
2017-Dec-09 07:00N 34°41' E 135°11'0 0.0
2017-Dec-09 06:28N 34°41' E 135°11'0 0.0
2017-Dec-09 05:58N 34°41' E 135°11'0 0.0
2017-Dec-09 05:28N 34°41' E 135°11'0 0.0
2017-Dec-09 04:58N 34°41' E 135°11'3 5.6
2017-Dec-09 04:30N 34°38' E 135°11'3 5.8
2017-Dec-09 04:00N 34°37' E 135°08'4 8.5
2017-Dec-09 03:31N 34°37' E 135°13'4 7.3
2017-Dec-09 03:00N 34°41' E 135°11'0 0.0
2017-Dec-09 02:28N 34°41' E 135°11'0 0.0
2017-Dec-09 01:58N 34°41' E 135°11'0 0.0
2017-Dec-09 01:28N 34°41' E 135°11'0 0.0
2017-Dec-09 00:58N 34°41' E 135°11'0 0.0
2017-Dec-09 00:28N 34°41' E 135°11'0 0.0
2017-Dec-08 23:58N 34°41' E 135°11'0 0.0
2017-Dec-08 23:28N 34°41' E 135°11'0 0.0
2017-Dec-08 22:58N 34°41' E 135°11'0 0.0
2017-Dec-08 22:28N 34°41' E 135°11'0 0.0
2017-Dec-08 21:58N 34°41' E 135°11'0 0.0
2017-Dec-08 21:28N 34°41' E 135°11'0 0.0
2017-Dec-08 20:58N 34°41' E 135°11'0 0.0
2017-Dec-08 20:28N 34°41' E 135°11'0 0.0
2017-Dec-08 19:58N 34°41' E 135°11'0 0.0
2017-Dec-08 19:28N 34°41' E 135°11'0 0.0
2017-Dec-08 18:58N 34°41' E 135°11'0 0.0
2017-Dec-08 18:28N 34°41' E 135°11'0 0.0
2017-Dec-08 17:58N 34°41' E 135°11'0 0.0
2017-Dec-08 17:28N 34°41' E 135°11'0 0.0
2017-Dec-08 16:52N 34°41' E 135°11'0 0.0
2017-Dec-08 16:28N 34°41' E 135°11'0 0.0
2017-Dec-08 15:58N 34°41' E 135°11'0 0.0
2017-Dec-08 15:28N 34°41' E 135°11'0 0.0
2017-Dec-08 14:58N 34°41' E 135°11'0 0.0
2017-Dec-08 14:28N 34°41' E 135°11'0 0.0
2017-Dec-08 13:55N 34°41' E 135°11'0 0.0
2017-Dec-08 13:28N 34°41' E 135°11'0 0.0
2017-Dec-08 12:58N 34°41' E 135°11'0 0.0
2017-Dec-08 12:28N 34°41' E 135°11'1 1.8
2017-Dec-08 12:00N 34°40' E 135°12'713.6
2017-Dec-08 11:31N 34°35' E 135°06'510.4
2017-Dec-08 11:00N 34°37' E 135°00'612.1
2017-Dec-08 10:31N 34°37' E 135°08'5 9.5
2017-Dec-08 10:00N 34°41' E 135°11'0 0.0
2017-Dec-08 09:29N 34°41' E 135°11'1 1.7
2017-Dec-08 09:00N 34°40' E 135°12'3 6.2
2017-Dec-08 08:30N 34°38' E 135°09'4 7.2
2017-Dec-08 08:01N 34°41' E 135°11'0 0.0
2017-Dec-08 07:29N 34°41' E 135°11'0 0.0
2017-Dec-08 06:59N 34°41' E 135°11'0 0.0
2017-Dec-08 06:29N 34°41' E 135°11'0 0.0
2017-Dec-08 05:59N 34°41' E 135°11'0 0.0
2017-Dec-08 05:29N 34°41' E 135°11'0 0.0
2017-Dec-08 04:59N 34°41' E 135°11'0 0.0
2017-Dec-08 04:29N 34°41' E 135°11'0 0.0
2017-Dec-08 03:59N 34°41' E 135°11'0 0.0
2017-Dec-08 03:29N 34°41' E 135°11'0 0.0
2017-Dec-08 03:01N 34°41' E 135°11'0 0.0
2017-Dec-08 02:28N 34°41' E 135°11'0 0.0
2017-Dec-08 01:58N 34°41' E 135°11'0 0.0
2017-Dec-08 01:28N 34°41' E 135°11'0 0.0
2017-Dec-08 00:58N 34°41' E 135°11'0 0.0
2017-Dec-08 00:28N 34°41' E 135°11'0 0.0
2017-Dec-07 23:58N 34°41' E 135°11'0 0.0
2017-Dec-07 23:28N 34°41' E 135°11'0 0.0
2017-Dec-07 22:58N 34°41' E 135°11'0 0.0
2017-Dec-07 22:28N 34°41' E 135°11'0 0.0
2017-Dec-07 21:58N 34°41' E 135°11'0 0.0
2017-Dec-07 21:28N 34°41' E 135°11'0 0.0
2017-Dec-07 20:58N 34°41' E 135°11'0 0.0
2017-Dec-07 20:28N 34°41' E 135°11'0 0.0
2017-Dec-07 19:58N 34°41' E 135°11'0 0.0
2017-Dec-07 19:28N 34°41' E 135°11'0 0.0
2017-Dec-07 18:58N 34°41' E 135°11'0 0.0
2017-Dec-07 18:28N 34°41' E 135°11'0 0.0
2017-Dec-07 17:58N 34°41' E 135°11'0 0.0
2017-Dec-07 17:28N 34°41' E 135°11'0 0.0
2017-Dec-07 16:58N 34°41' E 135°11'0 0.0
2017-Dec-07 16:28N 34°41' E 135°11'0 0.0
2017-Dec-07 15:58N 34°41' E 135°11'0 0.0
2017-Dec-07 15:28N 34°41' E 135°11'0 0.0
2017-Dec-07 14:58N 34°41' E 135°11'0 0.0
2017-Dec-07 14:28N 34°41' E 135°11'0 0.0
2017-Dec-07 13:58N 34°41' E 135°11'0 0.0
2017-Dec-07 13:28N 34°41' E 135°11'0 0.0
2017-Dec-07 12:58N 34°41' E 135°11'0 0.0
2017-Dec-07 12:28N 34°41' E 135°11'1 2.1
2017-Dec-07 12:00N 34°40' E 135°12'713.1
2017-Dec-07 11:30N 34°35' E 135°06'611.6
2017-Dec-07 11:00N 34°37' E 134°59'713.3
2017-Dec-07 10:30N 34°37' E 135°07'5 9.9
2017-Dec-07 10:00N 34°41' E 135°11'0 0.0
2017-Dec-07 09:30N 34°41' E 135°11'1 1.5
2017-Dec-07 09:00N 34°40' E 135°12'4 7.7
2017-Dec-07 08:30N 34°38' E 135°08'4 8.5
2017-Dec-07 08:01N 34°41' E 135°11'0 0.0
2017-Dec-07 07:30N 34°41' E 135°11'0 0.0
2017-Dec-07 07:00N 34°41' E 135°11'0 0.0
2017-Dec-07 06:30N 34°41' E 135°11'0 0.0
2017-Dec-07 06:00N 34°41' E 135°11'0 0.0
2017-Dec-07 05:30N 34°41' E 135°11'0 0.0
2017-Dec-07 05:00N 34°41' E 135°11'3 5.3
2017-Dec-07 04:30N 34°38' E 135°11'2 3.3
2017-Dec-07 04:00N 34°37' E 135°10'3 6.0
2017-Dec-07 03:30N 34°37' E 135°13'4 7.5
2017-Dec-07 03:00N 34°41' E 135°11'0 0.0
2017-Dec-07 02:28N 34°41' E 135°11'0 0.0
2017-Dec-07 01:58N 34°41' E 135°11'0 0.0
2017-Dec-07 01:28N 34°41' E 135°11'0 0.0
2017-Dec-07 00:58N 34°41' E 135°11'0 0.0
2017-Dec-07 00:28N 34°41' E 135°11'0 0.0
2017-Dec-06 23:58N 34°41' E 135°11'0 0.0
2017-Dec-06 23:28N 34°41' E 135°11'0 0.0
2017-Dec-06 22:58N 34°41' E 135°11'0 0.0
2017-Dec-06 22:28N 34°41' E 135°11'0 0.0
2017-Dec-06 21:58N 34°41' E 135°11'0 0.0
2017-Dec-06 21:28N 34°41' E 135°11'0 0.0
2017-Dec-06 20:58N 34°41' E 135°11'  
2017-Dec-04 10:31N 34°37' E 135°08'5 9.9
2017-Dec-04 10:01N 34°41' E 135°11'0 0.0
2017-Dec-04 09:29N 34°41' E 135°11'1 1.5
2017-Dec-04 09:00N 34°40' E 135°12'4 7.6
2017-Dec-04 08:30N 34°38' E 135°08'4 8.3
2017-Dec-04 08:00N 34°41' E 135°11'0 0.0
2017-Dec-04 07:28N 34°41' E 135°11'0 0.0
2017-Dec-04 06:58N 34°41' E 135°11'0 0.0
2017-Dec-04 06:28N 34°41' E 135°11'0 0.0
2017-Dec-04 05:58N 34°41' E 135°11'0 0.0
2017-Dec-04 05:28N 34°41' E 135°11'0 0.0
2017-Dec-04 04:58N 34°41' E 135°11'2 5.3
2017-Dec-04 04:31N 34°38' E 135°11'3 6.4
2017-Dec-04 04:00N 34°37' E 135°08'5 9.9
2017-Dec-04 03:30N 34°37' E 135°13'4 7.5
2017-Dec-04 03:00N 34°41' E 135°11'0 0.0
2017-Dec-04 02:28N 34°41' E 135°11'0 0.0
2017-Dec-04 01:58N 34°41' E 135°11'0 0.0
2017-Dec-04 01:28N 34°41' E 135°11'0 0.0
2017-Dec-04 00:58N 34°41' E 135°11'0 0.0
2017-Dec-04 00:28N 34°41' E 135°11'0 0.0
2017-Dec-03 23:58N 34°41' E 135°11'0 0.0
2017-Dec-03 23:28N 34°41' E 135°11'0 0.0
2017-Dec-03 22:58N 34°41' E 135°11'0 0.0
2017-Dec-03 22:28N 34°41' E 135°11'0 0.0
2017-Dec-03 21:55N 34°41' E 135°11'0 0.0
2017-Dec-03 21:28N 34°41' E 135°11'0 0.0
2017-Dec-03 20:58N 34°41' E 135°11'0 0.0
2017-Dec-03 20:28N 34°41' E 135°11'0 0.0
2017-Dec-03 19:58N 34°41' E 135°11'0 0.0
2017-Dec-03 19:28N 34°41' E 135°11'0 0.0
2017-Dec-03 18:58N 34°41' E 135°11'0 0.0
2017-Dec-03 18:28N 34°41' E 135°11'0 0.0
2017-Dec-03 17:58N 34°41' E 135°11'0 0.0
2017-Dec-03 17:28N 34°41' E 135°11'0 0.0
2017-Dec-03 16:58N 34°41' E 135°11'0 0.0
2017-Dec-03 16:28N 34°41' E 135°11'0 0.0
2017-Dec-03 15:58N 34°41' E 135°11'0 0.0
2017-Dec-03 15:28N 34°41' E 135°11'0 0.0
2017-Dec-03 14:58N 34°41' E 135°11'0 0.0
2017-Dec-03 14:28N 34°41' E 135°11'0 0.0
2017-Dec-03 13:58N 34°41' E 135°11'0 0.0
2017-Dec-03 13:28N 34°41' E 135°11'0 0.0
2017-Dec-03 12:58N 34°41' E 135°11'0 0.0
2017-Dec-03 12:28N 34°41' E 135°11'1 2.6
2017-Dec-03 12:00N 34°40' E 135°11'713.2
2017-Dec-03 11:30N 34°35' E 135°06'612.6
2017-Dec-03 11:01N 34°37' E 134°59'816.9
2017-Dec-03 10:31N 34°38' E 135°09'4 7.6
2017-Dec-03 10:00N 34°41' E 135°11'0 0.0
2017-Dec-03 09:29N 34°41' E 135°11'0 0.0
2017-Dec-03 08:59N 34°41' E 135°11'2 5.3
2017-Dec-03 08:30N 34°38' E 135°11'3 7.0
2017-Dec-03 08:00N 34°37' E 135°07'4 8.4
2017-Dec-03 07:31N 34°38' E 135°12'3 6.4
2017-Dec-03 07:00N 34°41' E 135°11'0 0.0
2017-Dec-03 06:29N 34°41' E 135°11'0 0.0
2017-Dec-03 05:59N 34°41' E 135°11'0 0.0
2017-Dec-03 05:29N 34°41' E 135°11'0 0.0
2017-Dec-03 04:59N 34°41' E 135°11'2 4.9
2017-Dec-03 04:31N 34°38' E 135°11'4 8.1
2017-Dec-03 04:00N 34°37' E 135°07'510.8
2017-Dec-03 03:30N 34°37' E 135°13'4 7.9
2017-Dec-03 03:00N 34°41' E 135°11'0 0.0
2017-Dec-03 02:30N 34°41' E 135°11'0 0.0
2017-Dec-03 02:00N 34°41' E 135°11'0 0.0
2017-Dec-03 01:30N 34°41' E 135°11'0 0.0
2017-Dec-03 01:00N 34°41' E 135°11'0 0.0
2017-Dec-03 00:30N 34°41' E 135°11'0 0.0
2017-Dec-03 00:00N 34°41' E 135°11'0 0.0
2017-Dec-02 23:30N 34°41' E 135°11'0 0.0
2017-Dec-02 23:00N 34°41' E 135°11'0 0.0
2017-Dec-02 22:30N 34°41' E 135°11'0 0.0
2017-Dec-02 22:00N 34°41' E 135°11'0 0.0
2017-Dec-02 21:30N 34°41' E 135°11'0 0.0
2017-Dec-02 21:00N 34°41' E 135°11'0 0.0
2017-Dec-02 20:30N 34°41' E 135°11'0 0.0
2017-Dec-02 20:00N 34°41' E 135°11'0 0.0
2017-Dec-02 19:30N 34°41' E 135°11'0 0.0
2017-Dec-02 19:00N 34°41' E 135°11'0 0.0
2017-Dec-02 18:30N 34°41' E 135°11'0 0.0
2017-Dec-02 18:00N 34°41' E 135°11'0 0.0
2017-Dec-02 17:30N 34°41' E 135°11'0 0.0
2017-Dec-02 17:00N 34°41' E 135°11'0 0.0
2017-Dec-02 16:30N 34°41' E 135°11'0 0.0
2017-Dec-02 16:00N 34°41' E 135°11'0 0.0
2017-Dec-02 15:30N 34°41' E 135°11'0 0.0
2017-Dec-02 15:00N 34°41' E 135°11'0 0.0
2017-Dec-02 14:30N 34°41' E 135°11'0 0.0
2017-Dec-02 14:00N 34°41' E 135°11'0 0.0
2017-Dec-02 13:30N 34°41' E 135°11'0 0.0
2017-Dec-02 13:00N 34°41' E 135°11'0 0.0
2017-Dec-02 12:30N 34°41' E 135°11'1 1.3
2017-Dec-02 12:00N 34°40' E 135°11'713.1
2017-Dec-02 11:30N 34°36' E 135°06'612.4
2017-Dec-02 11:01N 34°38' E 134°59'816.1
2017-Dec-02 10:31N 34°38' E 135°09'4 7.7
2017-Dec-02 10:00N 34°41' E 135°11'0 0.0
2017-Dec-02 09:26N 34°41' E 135°11'0 0.0
2017-Dec-02 08:59N 34°41' E 135°11'2 5.1
2017-Dec-02 08:30N 34°38' E 135°11'4 7.6
2017-Dec-02 08:00N 34°37' E 135°07'611.6
2017-Dec-02 07:30N 34°37' E 135°14'4 7.6
2017-Dec-02 06:59N 34°41' E 135°11'0 0.0
2017-Dec-02 06:26N 34°41' E 135°11'0 0.0
2017-Dec-02 05:59N 34°41' E 135°11'0 0.0
2017-Dec-02 05:29N 34°41' E 135°11'0 0.0
2017-Dec-02 04:59N 34°41' E 135°11'2 4.9
2017-Dec-02 04:31N 34°38' E 135°11'4 7.2
2017-Dec-02 04:00N 34°37' E 135°07'5 9.9
2017-Dec-02 03:30N 34°37' E 135°13'4 7.5
2017-Dec-02 03:00N 34°41' E 135°11'0 0.0
2017-Dec-02 02:28N 34°41' E 135°11'0 0.0
2017-Dec-02 01:58N 34°41' E 135°11'0 0.0
2017-Dec-02 01:28N 34°41' E 135°11'0 0.0
2017-Dec-02 00:58N 34°41' E 135°11'0 0.0
2017-Dec-02 00:28N 34°41' E 135°11'0 0.0
2017-Dec-01 23:58N 34°41' E 135°11'0 0.0
2017-Dec-01 23:28N 34°41' E 135°11'0 0.0
2017-Dec-01 22:58N 34°41' E 135°11'0 0.0
2017-Dec-01 22:28N 34°41' E 135°11'0 0.0
2017-Dec-01 21:58N 34°41' E 135°11'0 0.0
2017-Dec-01 21:28N 34°41' E 135°11'0 0.0
2017-Dec-01 20:58N 34°41' E 135°11'0 0.0
2017-Dec-01 20:28N 34°41' E 135°11'0 0.0
2017-Dec-01 19:58N 34°41' E 135°11'0 0.0
2017-Dec-01 19:28N 34°41' E 135°11'0 0.0
2017-Dec-01 18:58N 34°41' E 135°11'0 0.0
2017-Dec-01 18:28N 34°41' E 135°11'0 0.0
2017-Dec-01 17:55N 34°41' E 135°11'0 0.0
2017-Dec-01 17:28N 34°41' E 135°11'  

Dump ship's entire track history